createdAt,value
2017-08-16T00:00:57.350Z,20.30
2017-08-16T00:03:25.574Z,20.30
2017-08-16T00:05:54.599Z,20.40
2017-08-16T00:08:22.895Z,20.40
2017-08-16T00:10:51.204Z,20.40
2017-08-16T00:13:19.671Z,20.40
2017-08-16T00:15:48.218Z,20.40
2017-08-16T00:18:16.478Z,20.40
2017-08-16T00:20:44.807Z,20.40
2017-08-16T00:23:13.304Z,20.40
2017-08-16T00:25:41.604Z,20.30
2017-08-16T00:28:10.633Z,20.30
2017-08-16T00:30:39.103Z,20.30
2017-08-16T00:33:07.355Z,20.30
2017-08-16T00:35:35.621Z,20.30
2017-08-16T00:38:04.636Z,20.30
2017-08-16T00:40:32.920Z,20.30
2017-08-16T00:43:01.276Z,20.30
2017-08-16T00:45:29.574Z,20.30
2017-08-16T00:47:58.004Z,20.30
2017-08-16T00:50:27.153Z,20.30
2017-08-16T00:52:55.441Z,20.30
2017-08-16T00:55:23.795Z,20.30
2017-08-16T00:57:52.067Z,20.30
2017-08-16T01:00:20.330Z,20.30
2017-08-16T01:02:48.649Z,20.20
2017-08-16T01:05:16.891Z,20.30
2017-08-16T01:07:45.299Z,20.20
2017-08-16T01:10:13.549Z,20.20
2017-08-16T01:12:41.839Z,20.20
2017-08-16T01:15:10.269Z,20.20
2017-08-16T01:17:39.462Z,20.10
2017-08-16T01:20:07.681Z,20.00
2017-08-16T01:22:35.985Z,20.10
2017-08-16T01:25:05.160Z,20.10
2017-08-16T01:27:33.450Z,20.10
2017-08-16T01:30:01.698Z,20.00
2017-08-16T01:32:30.008Z,20.10
2017-08-16T01:34:58.561Z,20.10
2017-08-16T01:37:26.856Z,20.10
2017-08-16T01:39:55.235Z,20.00
2017-08-16T01:42:23.614Z,19.90
2017-08-16T01:44:51.933Z,19.90
2017-08-16T01:47:21.119Z,19.90
2017-08-16T01:49:49.853Z,19.90
2017-08-16T01:52:18.095Z,19.90
2017-08-16T01:54:47.138Z,20.00
2017-08-16T01:57:15.497Z,20.00
2017-08-16T01:59:44.010Z,20.00
2017-08-16T02:02:12.307Z,20.10
2017-08-16T02:04:40.603Z,20.10
2017-08-16T02:07:09.101Z,20.10
2017-08-16T02:09:37.361Z,20.20
2017-08-16T02:12:05.602Z,20.20
2017-08-16T02:14:33.925Z,20.20
2017-08-16T02:17:02.240Z,20.10
2017-08-16T02:19:30.682Z,20.10
2017-08-16T02:21:59.025Z,20.10
2017-08-16T02:24:28.165Z,20.10
2017-08-16T02:26:56.399Z,20.10
2017-08-16T02:29:25.444Z,20.00
2017-08-16T02:31:53.698Z,20.00
2017-08-16T02:34:22.878Z,20.00
2017-08-16T02:36:51.158Z,19.90
2017-08-16T02:39:19.500Z,19.90
2017-08-16T02:41:47.773Z,19.90
2017-08-16T02:44:16.224Z,19.90
2017-08-16T02:46:44.678Z,19.90
2017-08-16T02:49:13.792Z,19.90
2017-08-16T02:51:42.220Z,19.80
2017-08-16T02:54:10.656Z,19.90
2017-08-16T02:56:38.892Z,19.70
2017-08-16T02:59:07.242Z,19.80
2017-08-16T03:01:35.557Z,19.70
2017-08-16T03:04:03.826Z,19.70
2017-08-16T03:06:32.098Z,19.60
2017-08-16T03:09:01.325Z,19.60
2017-08-16T03:11:29.775Z,19.60
2017-08-16T03:13:58.069Z,19.50
2017-08-16T03:16:26.535Z,19.50
2017-08-16T03:18:55.611Z,19.50
2017-08-16T03:21:23.884Z,19.40
2017-08-16T03:23:52.976Z,19.40
2017-08-16T03:26:21.488Z,19.40
2017-08-16T03:28:55.123Z,19.40
2017-08-16T03:31:23.377Z,19.30
2017-08-16T03:33:51.618Z,19.30
2017-08-16T03:36:20.693Z,19.30
2017-08-16T03:38:49.136Z,19.30
2017-08-16T03:41:17.488Z,19.30
2017-08-16T03:43:46.558Z,19.10
2017-08-16T03:46:15.041Z,19.10
2017-08-16T03:48:43.504Z,19.10
2017-08-16T03:51:12.188Z,19.10
2017-08-16T03:53:41.151Z,19.10
2017-08-16T03:56:09.619Z,19.10
2017-08-16T03:58:38.004Z,19.10
2017-08-16T04:01:06.660Z,19.10
2017-08-16T04:03:35.743Z,19.10
2017-08-16T04:06:03.997Z,19.10
2017-08-16T04:08:32.574Z,19.10
2017-08-16T04:11:01.053Z,19.10
2017-08-16T04:13:29.317Z,19.10
2017-08-16T04:15:57.716Z,19.10
2017-08-16T04:18:26.757Z,19.00
2017-08-16T04:20:55.454Z,19.00
2017-08-16T04:23:23.735Z,19.00
2017-08-16T04:25:52.020Z,19.00
2017-08-16T04:28:20.277Z,19.00
2017-08-16T04:30:48.513Z,18.90
2017-08-16T04:33:16.862Z,19.00
2017-08-16T04:35:45.116Z,19.00
2017-08-16T04:38:13.402Z,19.00
2017-08-16T04:40:41.630Z,19.00
2017-08-16T04:43:09.906Z,19.00
2017-08-16T04:45:39.653Z,19.10
2017-08-16T04:48:07.904Z,19.00
2017-08-16T04:50:36.805Z,19.10
2017-08-16T04:53:05.104Z,19.10
2017-08-16T04:55:34.173Z,19.10
2017-08-16T04:58:02.429Z,19.10
2017-08-16T05:00:30.685Z,19.10
2017-08-16T05:02:59.374Z,19.10
2017-08-16T05:05:27.703Z,19.10
2017-08-16T05:07:56.063Z,19.10
2017-08-16T05:10:24.297Z,19.10
2017-08-16T05:12:52.590Z,19.20
2017-08-16T05:15:20.832Z,19.20
2017-08-16T05:17:49.099Z,19.20
2017-08-16T05:20:17.487Z,19.30
2017-08-16T05:22:45.843Z,19.40
2017-08-16T05:25:14.142Z,19.50
2017-08-16T05:27:42.381Z,19.60
2017-08-16T05:30:10.669Z,19.70
2017-08-16T05:32:38.914Z,19.90
2017-08-16T05:35:07.164Z,19.90
2017-08-16T05:37:35.394Z,20.00
2017-08-16T05:40:03.658Z,20.10
2017-08-16T05:42:31.941Z,20.00
2017-08-16T05:45:00.340Z,20.10
2017-08-16T05:47:28.635Z,20.30
2017-08-16T05:49:57.647Z,20.60
2017-08-16T05:52:25.898Z,20.60
2017-08-16T05:54:55.120Z,20.80
2017-08-16T05:57:23.380Z,20.80
2017-08-16T05:59:51.764Z,20.90
2017-08-16T06:02:20.106Z,20.90
2017-08-16T06:04:48.360Z,20.90
2017-08-16T06:07:16.717Z,20.90
2017-08-16T06:09:45.192Z,21.10
2017-08-16T06:12:13.516Z,21.20
2017-08-16T06:14:41.921Z,21.40
2017-08-16T06:17:11.300Z,21.60
2017-08-16T06:19:40.597Z,21.70
2017-08-16T06:22:09.456Z,21.70
2017-08-16T06:24:38.676Z,21.70
2017-08-16T06:27:07.894Z,21.90
2017-08-16T06:29:37.000Z,22.00
2017-08-16T06:32:05.208Z,22.00
2017-08-16T06:34:35.334Z,22.20
2017-08-16T06:37:03.719Z,22.30
2017-08-16T06:39:31.941Z,22.50
2017-08-16T06:42:00.209Z,22.60
2017-08-16T06:44:29.564Z,22.80
2017-08-16T06:46:58.641Z,23.20
2017-08-16T06:49:27.029Z,23.10
2017-08-16T06:51:55.340Z,23.30
2017-08-16T06:54:23.676Z,23.30
2017-08-16T06:56:51.916Z,23.40
2017-08-16T06:59:20.931Z,23.40
2017-08-16T07:01:49.194Z,23.40
2017-08-16T07:04:17.443Z,23.40
2017-08-16T07:06:45.721Z,23.40
2017-08-16T07:09:14.721Z,23.70
2017-08-16T07:11:44.888Z,23.90
2017-08-16T07:14:13.302Z,23.80
2017-08-16T07:16:41.625Z,24.10
2017-08-16T07:19:10.544Z,24.40
2017-08-16T07:21:38.823Z,24.60
2017-08-16T07:24:07.110Z,24.80
2017-08-16T07:26:35.514Z,25.00
2017-08-16T07:29:04.810Z,25.70
2017-08-16T07:31:34.129Z,25.60
2017-08-16T07:34:02.369Z,25.90
2017-08-16T07:36:31.652Z,26.40
2017-08-16T07:39:00.240Z,26.40
2017-08-16T07:41:28.560Z,26.70
2017-08-16T07:43:57.094Z,27.00
2017-08-16T07:46:25.618Z,26.90
2017-08-16T07:48:54.778Z,26.60
2017-08-16T07:51:23.300Z,26.70
2017-08-16T07:53:51.583Z,26.90
2017-08-16T07:56:19.872Z,26.70
2017-08-16T07:58:48.172Z,26.60
2017-08-16T08:01:16.646Z,26.50
2017-08-16T08:03:45.045Z,26.30
2017-08-16T08:06:13.495Z,26.10
2017-08-16T08:08:41.768Z,25.90
2017-08-16T08:11:10.005Z,25.50
2017-08-16T08:13:39.045Z,25.00
2017-08-16T08:16:07.650Z,24.90
2017-08-16T08:18:36.057Z,24.80
2017-08-16T08:21:05.185Z,24.70
2017-08-16T08:23:33.502Z,24.70
2017-08-16T08:26:01.791Z,24.50
2017-08-16T08:28:30.876Z,24.20
2017-08-16T08:30:59.235Z,24.20
2017-08-16T08:33:27.670Z,24.40
2017-08-16T08:35:56.719Z,25.10
2017-08-16T08:38:24.974Z,25.00
2017-08-16T08:40:53.390Z,25.60
2017-08-16T08:43:21.649Z,26.20
2017-08-16T08:45:50.011Z,26.80
2017-08-16T08:48:18.385Z,27.40
2017-08-16T08:50:46.762Z,27.70
2017-08-16T08:53:16.258Z,28.00
2017-08-16T08:55:44.683Z,28.40
2017-08-16T08:58:12.944Z,28.90
2017-08-16T09:00:41.206Z,29.40
2017-08-16T09:03:09.632Z,29.80
2017-08-16T09:05:37.921Z,30.10
2017-08-16T09:08:06.204Z,30.40
2017-08-16T09:10:34.598Z,30.70
2017-08-16T09:13:03.747Z,31.00
2017-08-16T09:15:32.819Z,31.00
2017-08-16T09:18:01.145Z,31.00
2017-08-16T09:20:29.670Z,31.00
2017-08-16T09:22:58.330Z,31.00
2017-08-16T09:25:26.592Z,31.20
2017-08-16T09:27:56.176Z,31.30
2017-08-16T09:30:24.682Z,31.50
2017-08-16T09:32:53.048Z,31.70
2017-08-16T09:35:21.409Z,31.60
2017-08-16T09:37:50.356Z,31.40
2017-08-16T09:40:18.638Z,31.20
2017-08-16T09:42:46.874Z,30.90
2017-08-16T09:45:15.196Z,30.60
2017-08-16T09:47:43.425Z,30.70
2017-08-16T09:50:11.736Z,30.70
2017-08-16T09:52:40.651Z,30.80
2017-08-16T09:55:09.084Z,30.80
2017-08-16T09:57:37.611Z,30.60
2017-08-16T10:00:05.885Z,30.40
2017-08-16T10:02:34.145Z,30.20
2017-08-16T10:05:02.408Z,30.00
2017-08-16T10:07:30.739Z,29.70
2017-08-16T10:09:59.831Z,29.10
2017-08-16T10:12:28.090Z,29.10
2017-08-16T10:14:57.264Z,28.60
2017-08-16T10:17:25.656Z,28.60
2017-08-16T10:19:54.021Z,28.50
2017-08-16T10:22:22.338Z,28.50
2017-08-16T10:24:50.623Z,28.50
2017-08-16T10:27:19.891Z,28.60
2017-08-16T10:29:48.268Z,28.80
2017-08-16T10:32:16.534Z,29.00
2017-08-16T10:34:44.920Z,29.40
2017-08-16T10:37:13.191Z,29.70
2017-08-16T10:39:41.478Z,30.00
2017-08-16T10:42:09.752Z,30.30
2017-08-16T10:44:38.846Z,30.50
2017-08-16T10:47:08.247Z,30.50
2017-08-16T10:49:36.544Z,30.40
2017-08-16T10:52:05.670Z,30.30
2017-08-16T10:54:34.803Z,30.30
2017-08-16T10:57:03.866Z,30.20
2017-08-16T10:59:32.134Z,30.20
2017-08-16T11:02:00.390Z,30.00
2017-08-16T11:04:28.706Z,30.10
2017-08-16T11:06:56.966Z,30.50
2017-08-16T11:09:25.252Z,30.50
2017-08-16T11:11:53.585Z,30.30
2017-08-16T11:14:22.173Z,30.00
2017-08-16T11:16:51.339Z,29.40
2017-08-16T11:19:20.566Z,28.90
2017-08-16T11:21:48.938Z,28.90
2017-08-16T11:24:17.213Z,28.60
2017-08-16T11:26:45.666Z,28.40
2017-08-16T11:29:13.906Z,28.20
2017-08-16T11:31:42.359Z,28.40
2017-08-16T11:34:12.382Z,28.40
2017-08-16T11:36:40.718Z,28.40
2017-08-16T11:39:09.092Z,28.30
2017-08-16T11:41:38.674Z,28.10
2017-08-16T11:44:07.242Z,27.90
2017-08-16T11:46:36.273Z,28.20
2017-08-16T11:49:06.555Z,28.80
2017-08-16T11:51:34.912Z,29.00
2017-08-16T11:54:03.362Z,29.00
2017-08-16T11:56:31.837Z,28.60
2017-08-16T11:59:00.188Z,28.50
2017-08-16T12:01:28.468Z,28.30
2017-08-16T12:03:56.957Z,28.10
2017-08-16T12:06:25.201Z,27.90
2017-08-16T12:08:53.472Z,28.30
2017-08-16T12:11:21.715Z,28.70
2017-08-16T12:13:50.949Z,29.80
2017-08-16T12:16:19.633Z,29.80
2017-08-16T12:18:47.887Z,30.20
2017-08-16T12:21:16.117Z,30.20
2017-08-16T12:23:44.365Z,29.80
2017-08-16T12:26:12.657Z,29.20
2017-08-16T12:28:40.927Z,29.00
2017-08-16T12:31:09.429Z,29.30
2017-08-16T12:33:37.662Z,29.70
2017-08-16T12:36:09.840Z,30.00
2017-08-16T12:38:38.100Z,30.30
2017-08-16T12:41:06.336Z,30.50
2017-08-16T12:43:35.625Z,30.50
2017-08-16T12:46:04.177Z,30.50
2017-08-16T12:48:32.465Z,30.60
2017-08-16T12:51:00.852Z,30.70
2017-08-16T12:53:29.196Z,30.70
2017-08-16T12:55:57.739Z,30.40
2017-08-16T12:58:26.779Z,29.60
2017-08-16T13:00:55.029Z,29.60
2017-08-16T13:03:23.517Z,29.30
2017-08-16T13:05:51.773Z,29.10
2017-08-16T13:08:20.075Z,29.10
2017-08-16T13:10:48.391Z,29.10
2017-08-16T13:13:16.949Z,28.90
2017-08-16T13:15:45.314Z,28.70
2017-08-16T13:18:13.638Z,28.50
2017-08-16T13:20:42.029Z,28.50
2017-08-16T13:23:10.491Z,28.40
2017-08-16T13:25:38.831Z,28.50
2017-08-16T13:28:07.101Z,28.50
2017-08-16T13:30:35.408Z,28.50
2017-08-16T13:33:03.813Z,28.50
2017-08-16T13:35:32.032Z,28.60
2017-08-16T13:38:00.633Z,28.60
2017-08-16T13:40:28.945Z,28.50
2017-08-16T13:42:57.196Z,28.40
2017-08-16T13:45:25.462Z,28.40
2017-08-16T13:47:54.029Z,28.30
2017-08-16T13:50:22.573Z,28.20
2017-08-16T13:52:51.621Z,27.90
2017-08-16T13:55:19.918Z,27.90
2017-08-16T13:57:48.352Z,27.90
2017-08-16T14:00:16.592Z,27.90
2017-08-16T14:02:44.862Z,27.70
2017-08-16T14:05:14.046Z,27.60
2017-08-16T14:07:42.927Z,27.60
2017-08-16T14:10:11.161Z,27.50
2017-08-16T14:12:39.484Z,27.50
2017-08-16T14:15:07.767Z,27.40
2017-08-16T14:17:36.100Z,27.40
2017-08-16T14:20:04.547Z,27.50
2017-08-16T14:22:35.523Z,27.50
2017-08-16T14:25:06.618Z,27.50
2017-08-16T14:27:35.859Z,27.30
2017-08-16T14:30:04.137Z,27.30
2017-08-16T14:32:32.535Z,27.10
2017-08-16T14:35:01.329Z,27.10
2017-08-16T14:37:29.560Z,27.00
2017-08-16T14:39:58.039Z,26.90
2017-08-16T14:42:26.375Z,27.00
2017-08-16T14:44:55.407Z,27.00
2017-08-16T14:47:23.646Z,26.90
2017-08-16T14:49:52.704Z,26.80
2017-08-16T14:52:20.950Z,26.80
2017-08-16T14:54:49.197Z,26.70
2017-08-16T14:57:17.506Z,26.70
2017-08-16T14:59:45.794Z,26.80
2017-08-16T15:02:14.404Z,26.70
2017-08-16T15:04:42.713Z,26.70
2017-08-16T15:07:11.752Z,26.70
2017-08-16T15:09:40.005Z,26.60
2017-08-16T15:12:08.272Z,26.60
2017-08-16T15:14:36.559Z,26.60
2017-08-16T15:17:04.785Z,26.60
2017-08-16T15:19:33.172Z,26.60
2017-08-16T15:22:01.428Z,26.70
2017-08-16T15:24:29.681Z,26.70
2017-08-16T15:26:58.081Z,26.60
2017-08-16T15:29:26.311Z,26.60
2017-08-16T15:31:54.548Z,26.60
2017-08-16T15:34:23.577Z,26.60
2017-08-16T15:36:51.905Z,26.60
2017-08-16T15:39:20.145Z,26.60
2017-08-16T15:41:48.386Z,26.60
2017-08-16T15:44:16.720Z,26.50
2017-08-16T15:46:45.157Z,26.40
2017-08-16T15:49:13.517Z,26.40
2017-08-16T15:51:41.751Z,26.40
2017-08-16T15:54:10.043Z,26.30
2017-08-16T15:56:38.874Z,26.30
2017-08-16T15:59:07.389Z,26.30
2017-08-16T16:01:35.984Z,26.20
2017-08-16T16:04:04.276Z,26.20
2017-08-16T16:06:32.736Z,26.30
2017-08-16T16:09:01.028Z,26.30
2017-08-16T16:11:30.064Z,26.30
2017-08-16T16:13:58.293Z,26.30
2017-08-16T16:16:27.337Z,26.30
2017-08-16T16:18:55.776Z,26.20
2017-08-16T16:21:24.827Z,26.20
2017-08-16T16:23:54.024Z,26.20
2017-08-16T16:26:22.308Z,26.20
2017-08-16T16:28:50.541Z,26.10
2017-08-16T16:31:19.598Z,26.10
2017-08-16T16:33:47.805Z,26.10
2017-08-16T16:36:16.211Z,26.10
2017-08-16T16:38:44.464Z,26.10
2017-08-16T16:41:12.736Z,26.00
2017-08-16T16:43:41.015Z,26.00
2017-08-16T16:46:09.296Z,25.90
2017-08-16T16:48:37.546Z,25.90
2017-08-16T16:51:05.872Z,25.90
2017-08-16T16:53:34.125Z,25.90
2017-08-16T16:56:02.401Z,25.80
2017-08-16T16:58:30.887Z,25.70
2017-08-16T17:00:59.129Z,25.70
2017-08-16T17:03:27.368Z,25.70
2017-08-16T17:05:55.650Z,25.70
2017-08-16T17:08:23.929Z,25.60
2017-08-16T17:10:52.230Z,25.50
2017-08-16T17:13:21.407Z,25.50
2017-08-16T17:15:49.646Z,25.50
2017-08-16T17:18:17.902Z,25.50
2017-08-16T17:20:46.189Z,25.50
2017-08-16T17:23:14.461Z,25.50
2017-08-16T17:25:42.717Z,25.50
2017-08-16T17:28:10.986Z,25.50
2017-08-16T17:30:39.258Z,25.50
2017-08-16T17:33:07.519Z,25.50
2017-08-16T17:35:36.610Z,25.50
2017-08-16T17:38:04.841Z,25.50
2017-08-16T17:40:33.091Z,25.50
2017-08-16T17:43:02.323Z,25.50
2017-08-16T17:45:30.622Z,25.50
2017-08-16T17:47:59.396Z,25.50
2017-08-16T17:50:27.609Z,25.50
2017-08-16T17:52:55.881Z,25.50
2017-08-16T17:55:24.883Z,25.30
2017-08-16T17:57:53.137Z,25.30
2017-08-16T18:00:22.169Z,25.30
2017-08-16T18:02:50.557Z,25.30
2017-08-16T18:05:19.182Z,25.30
2017-08-16T18:07:47.457Z,25.30
2017-08-16T18:10:15.849Z,25.30
2017-08-16T18:12:44.084Z,25.30
2017-08-16T18:15:12.357Z,25.30
2017-08-16T18:17:40.625Z,25.20
2017-08-16T18:20:08.920Z,25.10
2017-08-16T18:22:37.181Z,25.10
2017-08-16T18:25:05.454Z,25.00
2017-08-16T18:27:33.732Z,25.00
2017-08-16T18:30:01.970Z,24.90
2017-08-16T18:32:30.214Z,24.90
2017-08-16T18:34:59.114Z,24.90
2017-08-16T18:37:28.986Z,24.80
2017-08-16T18:39:57.253Z,24.80
2017-08-16T18:42:25.522Z,24.80
2017-08-16T18:44:53.773Z,24.80
2017-08-16T18:47:22.447Z,24.70
2017-08-16T18:49:51.475Z,24.70
2017-08-16T18:52:19.898Z,24.70
2017-08-16T18:54:48.152Z,24.70
2017-08-16T18:57:16.390Z,24.60
2017-08-16T18:59:44.882Z,24.70
2017-08-16T19:02:13.552Z,24.60
2017-08-16T19:04:41.934Z,24.60
2017-08-16T19:07:10.325Z,24.60
2017-08-16T19:09:38.603Z,24.50
2017-08-16T19:12:06.859Z,24.50
2017-08-16T19:14:35.875Z,24.50
2017-08-16T19:17:04.128Z,24.50
2017-08-16T19:19:33.087Z,24.50
2017-08-16T19:22:02.092Z,24.40
2017-08-16T19:24:31.124Z,24.40
2017-08-16T19:26:59.380Z,24.40
2017-08-16T19:29:28.899Z,24.40
2017-08-16T19:31:57.124Z,24.30
2017-08-16T19:34:25.464Z,24.30
2017-08-16T19:36:53.709Z,24.20
2017-08-16T19:39:21.983Z,24.20
2017-08-16T19:41:50.222Z,24.10
2017-08-16T19:44:18.582Z,24.10
2017-08-16T19:46:46.828Z,24.10
2017-08-16T19:49:16.635Z,24.00
2017-08-16T19:51:44.942Z,23.90
2017-08-16T19:54:13.250Z,23.90
2017-08-16T19:56:42.499Z,23.70
2017-08-16T19:59:10.749Z,23.70
2017-08-16T20:01:39.021Z,23.70
2017-08-16T20:04:07.337Z,23.60
2017-08-16T20:06:35.599Z,23.50
2017-08-16T20:09:03.862Z,23.40
2017-08-16T20:11:32.124Z,23.40
2017-08-16T20:14:00.376Z,23.30
2017-08-16T20:16:29.411Z,23.20
2017-08-16T20:18:57.674Z,23.20
2017-08-16T20:21:25.974Z,23.20
2017-08-16T20:23:54.241Z,23.20
2017-08-16T20:26:22.700Z,23.10
2017-08-16T20:28:52.017Z,23.10
2017-08-16T20:31:20.312Z,23.00
2017-08-16T20:33:48.613Z,23.00
2017-08-16T20:36:17.284Z,23.00
2017-08-16T20:38:45.545Z,22.90
2017-08-16T20:41:13.911Z,22.90
2017-08-16T20:43:42.209Z,22.90
2017-08-16T20:46:10.683Z,22.80
2017-08-16T20:48:39.153Z,22.80
2017-08-16T20:51:07.649Z,22.80
2017-08-16T20:53:35.889Z,22.80
2017-08-16T20:56:04.185Z,22.80
2017-08-16T20:58:32.451Z,22.70
2017-08-16T21:01:00.794Z,22.70
2017-08-16T21:03:29.030Z,22.60
2017-08-16T21:05:57.428Z,22.70
2017-08-16T21:08:25.677Z,22.60
2017-08-16T21:10:53.933Z,22.50
2017-08-16T21:13:22.198Z,22.50
2017-08-16T21:15:50.450Z,22.40
2017-08-16T21:18:19.520Z,22.30
2017-08-16T21:20:47.797Z,22.30
2017-08-16T21:23:16.078Z,22.30
2017-08-16T21:25:44.369Z,22.30
2017-08-16T21:28:12.785Z,22.30
2017-08-16T21:30:41.138Z,22.30
2017-08-16T21:33:10.209Z,22.30
2017-08-16T21:35:38.444Z,22.20
2017-08-16T21:38:06.702Z,22.30
2017-08-16T21:40:34.957Z,22.30
2017-08-16T21:43:03.385Z,22.20
2017-08-16T21:45:31.641Z,22.20
2017-08-16T21:47:59.962Z,22.20
2017-08-16T21:50:28.345Z,22.20
2017-08-16T21:52:56.602Z,22.20
2017-08-16T21:55:24.894Z,22.20
2017-08-16T21:57:53.276Z,22.10
2017-08-16T22:00:21.665Z,22.10
2017-08-16T22:02:51.098Z,22.00
2017-08-16T22:05:19.358Z,22.00
2017-08-16T22:07:47.602Z,22.00
2017-08-16T22:10:16.669Z,21.90
2017-08-16T22:12:44.941Z,21.90
2017-08-16T22:15:13.206Z,21.90
2017-08-16T22:17:41.449Z,21.80
2017-08-16T22:20:09.704Z,21.80
2017-08-16T22:22:38.715Z,21.80
2017-08-16T22:25:06.984Z,21.80
2017-08-16T22:27:35.388Z,21.80
2017-08-16T22:30:03.662Z,21.70
2017-08-16T22:32:31.904Z,21.70
2017-08-16T22:35:00.187Z,21.70
2017-08-16T22:37:28.607Z,21.70
2017-08-16T22:39:56.895Z,21.60
2017-08-16T22:42:25.169Z,21.60
2017-08-16T22:44:53.396Z,21.60
2017-08-16T22:47:21.768Z,21.50
2017-08-16T22:49:50.048Z,21.40
2017-08-16T22:52:18.313Z,21.40
2017-08-16T22:54:47.354Z,21.40
2017-08-16T22:57:15.624Z,21.30
2017-08-16T22:59:43.883Z,21.30
2017-08-16T23:02:12.225Z,21.30
2017-08-16T23:04:40.733Z,21.30
2017-08-16T23:07:09.710Z,21.30
2017-08-16T23:09:37.957Z,21.30
2017-08-16T23:12:06.273Z,21.30
2017-08-16T23:14:34.530Z,21.20
2017-08-16T23:17:02.770Z,21.30
2017-08-16T23:19:31.019Z,21.30
2017-08-16T23:21:59.291Z,21.30
2017-08-16T23:24:27.509Z,21.40
2017-08-16T23:26:55.770Z,21.40
2017-08-16T23:29:24.017Z,21.30
2017-08-16T23:31:52.282Z,21.30
2017-08-16T23:34:20.543Z,21.30
2017-08-16T23:36:48.826Z,21.30
2017-08-16T23:39:17.166Z,21.20
2017-08-16T23:41:46.213Z,21.20
2017-08-16T23:44:14.457Z,21.20
2017-08-16T23:46:43.482Z,21.20
2017-08-16T23:49:11.759Z,21.20
2017-08-16T23:51:40.037Z,21.20
2017-08-16T23:54:08.305Z,21.20
2017-08-16T23:56:36.549Z,21.20
2017-08-16T23:59:05.720Z,21.30
